Terminal Aerodrome Forecast
Issued by NWS Wilmington, OH

Current Version | Previous Version | Text Only | Print | Product List | Glossary On
Versions: 1 2 3 4 5 6 7 8 9 10 11 12 13 14 15 16 17 18
000 FTUS41 KILN 211400 AAA TAFDAY TAF AMD KDAY 211427Z 2114/2212 12005KT P6SM FEW022 SCT250 TEMPO 2114/2116 5SM BR FM221000 13005KT P6SM BKN015=

USA.gov is the U.S. government's official web portal to all federal, state and local government web resources and services.